Time;durP1;ratioP1;P1;durP2;ratioP2;P2;SDS_P1;SDS_P2;PMS_P1;PMS_P2;Temp;Humidity;BMP_temperature;BMP_pressure;BME280_temperature;BME280_humidity;BME280_pressure;Samples;Min_cycle;Max_cycle;Signal;HPM_P1;HPM_P2
2023/04/06 00:01:25;;;;;;;7.97;4.33;;;4.60;99.90;;;;;;5015087;28;20689;-70
2023/04/06 00:03:51;;;;;;;5.57;4.77;;;4.60;99.90;;;;;;5015506;28;20246;-68
2023/04/06 00:06:16;;;;;;;8.73;5.10;;;4.50;99.90;;;;;;5013364;28;20737;-70
2023/04/06 00:08:42;;;;;;;6.43;4.93;;;4.60;99.90;;;;;;5015030;28;20196;-70
2023/04/06 00:11:08;;;;;;;5.83;5.23;;;4.50;99.90;;;;;;5015329;28;20627;-70
2023/04/06 00:13:34;;;;;;;5.57;4.47;;;4.50;99.90;;;;;;5015001;28;20195;-69
2023/04/06 00:15:59;;;;;;;7.30;4.13;;;4.40;99.90;;;;;;5014640;28;20199;-69
2023/04/06 00:18:25;;;;;;;4.93;4.20;;;4.40;99.90;;;;;;5014664;28;20203;-69
2023/04/06 00:20:50;;;;;;;7.20;4.93;;;4.30;99.90;;;;;;5012995;28;20211;-70
2023/04/06 00:23:16;;;;;;;8.77;4.37;;;4.30;99.90;;;;;;5019894;28;20195;-68
2023/04/06 00:25:42;;;;;;;6.63;4.03;;;4.20;99.90;;;;;;5015320;28;20720;-69
2023/04/06 00:28:07;;;;;;;8.67;4.00;;;4.20;99.90;;;;;;5015424;28;20278;-68
2023/04/06 00:30:33;;;;;;;5.80;3.90;;;4.10;99.90;;;;;;5015135;28;20231;-68
2023/04/06 00:32:58;;;;;;;7.13;4.40;;;4.10;99.90;;;;;;5012697;28;20192;-70
2023/04/06 00:35:24;;;;;;;5.47;4.20;;;4.00;99.90;;;;;;5013952;28;20207;-68
2023/04/06 00:37:50;;;;;;;6.10;4.40;;;4.00;99.90;;;;;;5013228;28;20199;-69
2023/04/06 00:40:15;;;;;;;6.03;5.13;;;4.00;99.90;;;;;;5016481;28;20562;-69
2023/04/06 00:42:41;;;;;;;6.30;4.80;;;4.00;99.90;;;;;;5018048;28;20207;-70
2023/04/06 00:45:07;;;;;;;5.23;4.73;;;3.90;99.90;;;;;;5016433;28;20230;-69
2023/04/06 00:47:33;;;;;;;7.57;4.83;;;3.80;99.90;;;;;;5018189;28;20331;-69
2023/04/06 00:49:59;;;;;;;5.63;4.93;;;3.80;99.90;;;;;;5019167;28;20282;-69
2023/04/06 00:52:25;;;;;;;5.83;5.23;;;3.80;99.90;;;;;;5018109;28;20624;-70
2023/04/06 00:54:50;;;;;;;6.17;5.20;;;3.80;99.90;;;;;;5018109;28;20264;-70
2023/04/06 00:57:16;;;;;;;8.83;4.17;;;3.80;99.90;;;;;;5018166;28;20690;-68
2023/04/06 00:59:42;;;;;;;4.63;4.13;;;3.70;99.90;;;;;;5017225;28;20199;-70
2023/04/06 01:02:08;;;;;;;5.70;5.10;;;3.70;99.90;;;;;;5018430;28;20215;-69
2023/04/06 01:04:34;;;;;;;6.93;4.70;;;3.60;99.90;;;;;;5018066;28;20206;-70
2023/04/06 01:07:00;;;;;;;6.90;4.27;;;3.60;99.90;;;;;;5018228;28;20191;-69
2023/04/06 01:09:29;;;;;;;4.83;4.13;;;3.50;99.90;;;;;;5016228;28;20610;-70
2023/04/06 01:11:55;;;;;;;5.43;4.53;;;3.50;99.90;;;;;;5016526;28;20206;-69
2023/04/06 01:14:21;;;;;;;7.60;4.83;;;3.50;99.90;;;;;;5017532;28;20632;-76
2023/04/06 01:16:47;;;;;;;5.80;4.80;;;3.50;99.90;;;;;;5018339;28;20294;-69
2023/04/06 01:19:13;;;;;;;5.93;4.83;;;3.50;99.90;;;;;;5018189;28;20199;-69
2023/04/06 01:21:40;;;;;;;5.37;4.40;;;3.40;99.90;;;;;;5016227;28;20211;-72
2023/04/06 01:31:55;;;;;;;7.80;4.40;;;3.40;99.90;;;;;;6012221;23;20155;-86
2023/04/06 01:34:20;;;;;;;4.70;3.97;;;3.40;99.90;;;;;;4967926;28;20613;-85
2023/04/06 01:36:46;;;;;;;4.70;4.30;;;3.30;99.90;;;;;;4977087;28;20942;-73
2023/04/06 01:39:11;;;;;;;4.70;4.23;;;3.30;99.90;;;;;;4974740;28;20713;-72
2023/04/06 01:41:37;;;;;;;7.60;4.57;;;3.20;99.90;;;;;;4972395;28;20244;-74
2023/04/06 01:44:02;;;;;;;4.53;4.13;;;3.20;99.90;;;;;;4975301;28;20197;-71
2023/04/06 01:46:28;;;;;;;5.47;4.17;;;3.20;99.90;;;;;;4980533;28;20200;-72
2023/04/06 01:48:53;;;;;;;5.07;4.53;;;3.20;99.90;;;;;;4975042;28;20232;-71
2023/04/06 01:51:19;;;;;;;5.17;4.23;;;3.10;99.90;;;;;;4976643;28;20208;-72
2023/04/06 01:53:44;;;;;;;6.00;4.43;;;3.10;99.90;;;;;;4977466;28;20311;-73
2023/04/06 01:56:10;;;;;;;5.30;4.77;;;3.10;99.90;;;;;;4975784;28;20208;-73
2023/04/06 01:58:35;;;;;;;4.00;3.30;;;3.10;99.90;;;;;;4977534;28;20237;-73
2023/04/06 02:01:01;;;;;;;5.33;3.90;;;3.00;99.90;;;;;;4977163;28;20213;-72
2023/04/06 02:03:26;;;;;;;6.63;4.50;;;3.00;99.90;;;;;;4977305;28;20196;-72
2023/04/06 02:05:52;;;;;;;5.90;4.73;;;3.00;99.90;;;;;;4977594;28;20224;-72
2023/04/06 02:08:17;;;;;;;9.10;4.70;;;2.90;99.90;;;;;;4975344;28;20232;-70
2023/04/06 02:10:43;;;;;;;5.40;4.27;;;2.90;99.90;;;;;;4977345;28;20205;-72
2023/04/06 02:13:08;;;;;;;4.13;3.70;;;2.90;99.90;;;;;;4977203;28;20867;-72
2023/04/06 02:15:34;;;;;;;6.73;4.53;;;2.90;99.90;;;;;;4977361;28;20197;-72
2023/04/06 02:18:00;;;;;;;8.70;4.93;;;2.80;99.90;;;;;;4977363;28;20197;-72
2023/04/06 02:20:25;;;;;;;10.03;4.20;;;2.80;99.90;;;;;;4977076;28;20223;-72
2023/04/06 02:22:51;;;;;;;5.27;4.50;;;2.80;99.90;;;;;;4975912;28;20213;-71
2023/04/06 02:25:16;;;;;;;6.27;4.77;;;2.90;99.90;;;;;;4967935;28;20211;-72
2023/04/06 02:27:42;;;;;;;4.37;3.90;;;2.80;99.90;;;;;;4977253;28;20203;-72
2023/04/06 02:30:08;;;;;;;6.93;5.27;;;2.80;99.90;;;;;;4976982;28;20690;-72
2023/04/06 02:32:33;;;;;;;8.90;4.90;;;2.80;99.90;;;;;;4967455;28;20236;-72
2023/04/06 02:35:00;;;;;;;7.23;4.83;;;2.70;99.90;;;;;;4961390;28;20198;-72
2023/04/06 02:37:25;;;;;;;4.83;4.33;;;2.70;99.90;;;;;;4965904;28;20272;-71
2023/04/06 02:39:51;;;;;;;4.57;4.00;;;2.70;99.90;;;;;;4967495;28;20216;-73
2023/04/06 02:42:16;;;;;;;8.80;5.00;;;2.60;99.90;;;;;;4967309;28;20591;-72
2023/04/06 02:44:42;;;;;;;8.07;4.47;;;2.60;99.90;;;;;;4967159;28;20223;-72
2023/04/06 02:47:08;;;;;;;6.03;5.07;;;2.60;99.90;;;;;;4967395;28;20243;-72
2023/04/06 02:49:34;;;;;;;4.20;3.77;;;2.60;99.90;;;;;;4965502;28;20235;-72
2023/04/06 02:52:00;;;;;;;5.57;4.57;;;2.50;99.90;;;;;;4966668;28;20734;-72
2023/04/06 02:54:25;;;;;;;4.87;4.40;;;2.50;99.90;;;;;;4966628;28;20209;-72
2023/04/06 02:56:51;;;;;;;6.50;5.43;;;2.50;99.90;;;;;;4966663;28;20596;-71
2023/04/06 02:59:16;;;;;;;8.43;5.13;;;2.50;99.90;;;;;;4966609;28;20216;-71
2023/04/06 03:01:42;;;;;;;5.77;4.60;;;2.50;99.90;;;;;;4964852;28;20233;-72
2023/04/06 03:04:07;;;;;;;9.20;5.13;;;2.50;99.90;;;;;;4969756;28;20200;-72
2023/04/06 03:06:33;;;;;;;7.37;4.67;;;2.50;99.90;;;;;;4976407;28;20201;-72
2023/04/06 03:08:58;;;;;;;6.97;4.90;;;2.50;99.90;;;;;;4976235;28;20287;-71
2023/04/06 03:11:24;;;;;;;8.83;5.10;;;2.50;99.90;;;;;;4975677;28;20204;-73
2023/04/06 03:13:49;;;;;;;7.23;5.13;;;2.60;99.90;;;;;;4975548;28;20576;-73
2023/04/06 03:16:15;;;;;;;5.80;4.83;;;2.50;99.90;;;;;;4974231;28;20311;-73
2023/04/06 03:18:40;;;;;;;7.70;4.43;;;2.50;99.90;;;;;;4975923;28;20296;-73
2023/04/06 03:21:06;;;;;;;8.07;5.13;;;2.50;99.90;;;;;;4974482;28;20247;-73
2023/04/06 03:23:31;;;;;;;7.23;4.97;;;2.50;99.90;;;;;;4976185;28;20198;-72
2023/04/06 03:25:57;;;;;;;7.63;4.80;;;2.50;99.90;;;;;;4976064;28;20972;-72
2023/04/06 03:28:22;;;;;;;10.17;5.07;;;2.50;99.90;;;;;;4976002;28;20245;-72
2023/04/06 03:30:48;;;;;;;5.30;4.80;;;2.50;99.90;;;;;;4974305;28;20508;-72
2023/04/06 03:33:14;;;;;;;7.87;5.13;;;2.50;99.90;;;;;;4975828;28;20232;-71
2023/04/06 03:35:39;;;;;;;6.83;4.40;;;2.50;99.90;;;;;;4975817;28;20201;-72
2023/04/06 03:38:05;;;;;;;5.73;4.70;;;2.40;99.90;;;;;;4975786;28;20405;-71
2023/04/06 03:40:31;;;;;;;5.97;5.13;;;2.40;99.90;;;;;;4975890;28;20223;-72
2023/04/06 03:42:56;;;;;;;5.23;4.63;;;2.40;99.90;;;;;;4975254;28;20212;-72
2023/04/06 03:45:22;;;;;;;7.17;5.03;;;2.30;99.90;;;;;;4974608;28;20280;-72
2023/04/06 03:47:47;;;;;;;5.97;4.57;;;2.30;99.90;;;;;;4976000;28;20223;-72
2023/04/06 03:50:13;;;;;;;5.97;4.90;;;2.40;99.90;;;;;;4975652;28;20201;-72
2023/04/06 03:52:38;;;;;;;5.87;4.90;;;2.30;99.90;;;;;;4975806;28;20267;-73
2023/04/06 03:55:05;;;;;;;5.83;4.47;;;2.40;99.90;;;;;;4975892;28;20231;-72
2023/04/06 03:57:30;;;;;;;8.13;4.77;;;2.40;99.90;;;;;;4974797;28;20267;-72
2023/04/06 03:59:56;;;;;;;8.70;5.07;;;2.40;99.90;;;;;;4973415;28;20209;-72
2023/04/06 04:02:21;;;;;;;7.50;4.60;;;2.30;99.90;;;;;;4974715;28;20695;-72
2023/04/06 04:04:47;;;;;;;8.03;4.70;;;2.30;99.90;;;;;;4975491;28;20677;-72
2023/04/06 04:07:12;;;;;;;4.93;4.43;;;2.30;99.90;;;;;;4975750;28;20228;-72
2023/04/06 04:09:38;;;;;;;7.63;5.67;;;2.30;99.90;;;;;;4976459;28;20235;-72
2023/04/06 04:12:03;;;;;;;7.87;5.70;;;2.30;99.90;;;;;;4972581;28;20197;-72
2023/04/06 04:14:29;;;;;;;8.07;5.03;;;2.30;99.90;;;;;;4976443;28;20215;-73
2023/04/06 04:16:54;;;;;;;6.27;4.80;;;2.30;99.90;;;;;;4979110;28;20290;-73
2023/04/06 04:19:20;;;;;;;13.97;5.53;;;2.30;99.90;;;;;;4979231;28;20645;-72
2023/04/06 04:21:46;;;;;;;5.50;5.00;;;2.30;99.90;;;;;;4980016;28;20352;-72
2023/04/06 04:24:12;;;;;;;6.30;5.60;;;2.20;99.90;;;;;;4977901;28;20205;-74
2023/04/06 04:26:38;;;;;;;6.60;5.30;;;2.20;99.90;;;;;;4979381;28;20220;-74
2023/04/06 04:29:04;;;;;;;8.30;4.90;;;2.20;99.90;;;;;;4979280;28;20211;-74
2023/04/06 04:31:30;;;;;;;7.83;5.50;;;2.20;99.90;;;;;;4979096;28;20255;-74
2023/04/06 04:33:55;;;;;;;7.17;5.33;;;2.20;99.90;;;;;;4975162;28;20241;-73
2023/04/06 04:36:21;;;;;;;8.13;5.63;;;2.10;99.90;;;;;;4972637;28;20615;-72
2023/04/06 04:38:46;;;;;;;5.67;4.80;;;2.20;99.90;;;;;;4977308;28;20205;-71
2023/04/06 04:41:12;;;;;;;7.37;5.37;;;2.20;99.90;;;;;;4978827;28;20274;-73
2023/04/06 04:43:38;;;;;;;7.97;5.30;;;2.20;99.90;;;;;;4979312;28;20666;-72
2023/04/06 04:46:04;;;;;;;8.17;6.10;;;2.20;99.90;;;;;;4979312;28;20211;-71
2023/04/06 04:48:30;;;;;;;9.47;6.00;;;2.20;99.90;;;;;;4979113;28;20197;-71
2023/04/06 04:50:55;;;;;;;7.50;5.53;;;2.20;99.90;;;;;;4978885;28;20297;-72
2023/04/06 04:53:21;;;;;;;9.73;6.20;;;2.20;99.90;;;;;;4977281;28;20200;-72
2023/04/06 04:55:46;;;;;;;6.93;5.47;;;2.20;99.90;;;;;;4978785;28;20647;-71
2023/04/06 04:58:16;;;;;;;7.63;6.20;;;2.20;99.90;;;;;;4978050;28;20266;-71
2023/04/06 05:00:42;;;;;;;7.27;5.83;;;2.20;99.90;;;;;;4978745;28;20335;-72
2023/04/06 05:03:08;;;;;;;8.50;6.30;;;2.30;99.90;;;;;;4976835;28;20634;-72
2023/04/06 05:05:33;;;;;;;7.10;6.10;;;2.30;99.90;;;;;;4978300;28;20224;-72
2023/04/06 05:07:59;;;;;;;7.93;5.60;;;2.30;99.90;;;;;;4976513;28;20197;-71
2023/04/06 05:10:24;;;;;;;10.73;6.67;;;2.40;99.90;;;;;;4978554;28;20231;-72
2023/04/06 05:12:50;;;;;;;7.77;6.97;;;2.40;99.90;;;;;;4978555;28;20204;-71
2023/04/06 05:15:15;;;;;;;7.30;6.47;;;2.40;99.90;;;;;;4978510;28;20220;-71
2023/04/06 05:17:41;;;;;;;8.00;5.93;;;2.40;99.90;;;;;;4977331;28;20228;-73
2023/04/06 05:20:07;;;;;;;7.57;6.47;;;2.50;99.90;;;;;;4977189;28;20215;-72
2023/04/06 05:22:32;;;;;;;8.80;6.30;;;2.50;99.90;;;;;;4978593;28;20220;-72
2023/04/06 05:24:58;;;;;;;10.60;7.10;;;2.50;99.90;;;;;;4977734;28;20231;-72
2023/04/06 05:27:23;;;;;;;9.30;7.13;;;2.50;99.90;;;;;;4976081;28;20211;-71
2023/04/06 05:29:49;;;;;;;7.07;6.37;;;2.60;99.90;;;;;;4978613;28;20193;-71
2023/04/06 05:32:14;;;;;;;9.90;6.40;;;2.60;99.90;;;;;;4976374;28;20743;-71
2023/04/06 05:34:40;;;;;;;15.47;6.63;;;2.60;99.90;;;;;;4975776;28;20205;-71
2023/04/06 05:37:06;;;;;;;10.07;6.77;;;2.70;99.90;;;;;;4977208;28;20196;-72
2023/04/06 05:39:31;;;;;;;9.73;7.37;;;2.70;99.90;;;;;;4981558;28;20231;-72
2023/04/06 05:41:57;;;;;;;8.47;7.10;;;2.80;99.90;;;;;;4973188;28;20217;-73
2023/04/06 05:44:22;;;;;;;6.57;5.97;;;2.80;99.90;;;;;;4977947;28;20201;-72
2023/04/06 05:46:47;;;;;;;8.80;6.60;;;2.90;99.90;;;;;;4977935;28;20205;-73
2023/04/06 05:49:13;;;;;;;8.37;7.27;;;3.00;99.90;;;;;;4977810;28;20682;-72
2023/04/06 05:51:39;;;;;;;9.97;6.60;;;3.00;99.90;;;;;;4960271;28;20209;-73
2023/04/06 05:54:04;;;;;;;7.70;6.93;;;3.10;99.90;;;;;;4977592;28;20307;-72
2023/04/06 05:56:31;;;;;;;12.50;7.07;;;3.20;99.90;;;;;;4975993;28;20221;-72
2023/04/06 05:58:57;;;;;;;8.67;7.13;;;3.20;99.90;;;;;;4977672;28;20655;-72
2023/04/06 06:01:22;;;;;;;12.43;7.20;;;3.30;99.90;;;;;;4977695;28;20315;-72
2023/04/06 06:03:47;;;;;;;11.40;7.37;;;3.40;99.90;;;;;;4978336;28;20946;-72
2023/04/06 06:06:13;;;;;;;10.13;6.93;;;3.50;99.90;;;;;;4975794;28;20410;-72
2023/04/06 06:08:39;;;;;;;11.93;7.00;;;3.60;99.90;;;;;;4975317;28;20193;-72
2023/04/06 06:11:04;;;;;;;7.93;6.70;;;3.60;99.90;;;;;;4976302;28;20206;-71
2023/04/06 06:13:30;;;;;;;8.57;7.67;;;3.70;99.90;;;;;;4977190;28;20213;-72
2023/04/06 06:15:55;;;;;;;10.33;7.43;;;3.80;99.90;;;;;;4977563;28;20206;-71
2023/04/06 06:18:21;;;;;;;7.70;6.73;;;3.90;99.90;;;;;;4977167;28;20219;-72
2023/04/06 06:20:46;;;;;;;8.13;7.27;;;4.00;99.90;;;;;;4976298;28;20221;-71
2023/04/06 06:23:12;;;;;;;9.03;8.00;;;4.10;99.90;;;;;;4967713;28;20564;-73
2023/04/06 06:25:37;;;;;;;8.53;7.63;;;4.20;99.90;;;;;;4977010;28;20691;-72
2023/04/06 06:28:03;;;;;;;12.77;7.57;;;4.30;99.90;;;;;;4977026;28;20211;-73
2023/04/06 06:30:28;;;;;;;10.23;8.10;;;4.40;99.90;;;;;;4976936;28;20331;-72
2023/04/06 06:32:54;;;;;;;12.83;8.13;;;4.50;99.90;;;;;;4976541;28;20231;-72
2023/04/06 06:35:20;;;;;;;8.57;7.00;;;4.60;99.90;;;;;;4974857;28;20818;-72
2023/04/06 06:37:45;;;;;;;9.47;7.13;;;4.60;99.90;;;;;;4975832;28;20599;-72
2023/04/06 06:40:12;;;;;;;9.27;8.23;;;4.70;99.90;;;;;;4977119;28;20655;-73
2023/04/06 06:42:38;;;;;;;8.80;7.07;;;4.80;99.90;;;;;;4976865;28;20224;-72
2023/04/06 06:45:05;;;;;;;8.53;7.50;;;4.90;99.90;;;;;;4974825;28;20205;-72
2023/04/06 06:47:30;;;;;;;8.67;7.27;;;5.00;99.90;;;;;;4976866;28;20209;-73
2023/04/06 06:49:56;;;;;;;8.63;6.33;;;5.10;99.90;;;;;;4976967;28;20883;-72
2023/04/06 06:52:23;;;;;;;9.63;6.90;;;5.20;99.90;;;;;;4976217;28;20217;-72
2023/04/06 06:54:48;;;;;;;15.50;7.07;;;5.30;99.90;;;;;;4974616;28;20208;-71
2023/04/06 06:57:13;;;;;;;8.37;7.13;;;5.40;99.90;;;;;;4976778;28;20200;-74
2023/04/06 06:59:39;;;;;;;7.60;6.07;;;5.50;99.90;;;;;;4976756;28;20212;-73
2023/04/06 07:02:04;;;;;;;8.60;6.30;;;5.70;99.90;;;;;;4975637;28;20288;-73
2023/04/06 07:04:30;;;;;;;10.00;7.03;;;5.80;99.90;;;;;;4976630;28;20699;-73
2023/04/06 07:06:56;;;;;;;7.77;6.10;;;5.80;99.90;;;;;;4977413;28;20236;-74
2023/04/06 07:09:21;;;;;;;13.30;6.37;;;5.90;99.70;;;;;;4965902;28;20702;-74
2023/04/06 07:11:47;;;;;;;7.20;6.37;;;6.00;99.70;;;;;;4966414;28;20212;-76
2023/04/06 07:14:15;;;;;;;7.80;6.83;;;6.10;99.80;;;;;;4969510;28;20200;-72
2023/04/06 07:16:41;;;;;;;9.30;6.37;;;6.20;99.60;;;;;;4964739;28;20205;-72
2023/04/06 07:19:06;;;;;;;7.83;5.97;;;6.20;99.30;;;;;;4947851;28;20268;-71
2023/04/06 07:21:32;;;;;;;9.07;5.93;;;6.30;99.00;;;;;;4963895;28;20223;-72
2023/04/06 07:23:57;;;;;;;7.17;5.37;;;6.40;98.70;;;;;;4965312;28;20204;-71
2023/04/06 07:26:23;;;;;;;5.73;5.07;;;6.40;98.30;;;;;;4965249;28;20201;-72
2023/04/06 07:28:48;;;;;;;7.53;5.07;;;6.50;98.10;;;;;;4965776;28;20229;-72
2023/04/06 07:31:14;;;;;;;7.17;4.60;;;6.60;98.00;;;;;;4965837;28;20201;-71
2023/04/06 07:33:39;;;;;;;5.40;4.87;;;6.70;97.20;;;;;;4963552;28;20594;-70
2023/04/06 07:36:05;;;;;;;6.00;5.33;;;6.70;96.70;;;;;;4968865;28;20675;-72
2023/04/06 07:38:30;;;;;;;8.00;5.30;;;6.70;97.00;;;;;;4966126;28;20736;-71
2023/04/06 07:40:56;;;;;;;6.57;4.60;;;6.80;96.70;;;;;;4964837;28;20483;-71
2023/04/06 07:43:22;;;;;;;5.57;3.67;;;6.90;96.00;;;;;;4965121;28;20205;-74
2023/04/06 07:45:47;;;;;;;7.17;4.43;;;6.90;95.60;;;;;;4964560;28;20280;-70
2023/04/06 07:48:13;;;;;;;6.77;5.00;;;7.00;95.40;;;;;;4967009;28;20202;-71
2023/04/06 07:50:38;;;;;;;4.13;3.63;;;7.10;95.10;;;;;;4965145;28;20821;-72
2023/04/06 07:53:04;;;;;;;5.73;4.07;;;7.10;94.80;;;;;;4964783;28;20296;-71
2023/04/06 07:55:30;;;;;;;7.07;4.80;;;7.20;94.00;;;;;;4964139;28;20562;-71
2023/04/06 07:57:55;;;;;;;6.17;4.17;;;7.30;94.30;;;;;;4965509;28;20212;-71
2023/04/06 08:00:21;;;;;;;5.93;3.77;;;7.30;94.30;;;;;;4964337;28;20218;-73
2023/04/06 08:02:47;;;;;;;4.33;3.93;;;7.30;93.60;;;;;;4961909;28;20302;-71
2023/04/06 08:05:12;;;;;;;3.90;3.50;;;7.30;93.00;;;;;;4964899;28;20771;-73
2023/04/06 08:07:38;;;;;;;5.70;3.83;;;7.40;93.00;;;;;;4976928;28;20616;-72
2023/04/06 08:10:04;;;;;;;5.07;3.97;;;7.40;93.10;;;;;;4970413;28;20253;-72
2023/04/06 08:12:30;;;;;;;6.07;4.60;;;7.50;92.70;;;;;;4951788;28;20227;-72
2023/04/06 08:14:56;;;;;;;9.80;3.73;;;7.60;92.70;;;;;;4973941;28;20565;-72
2023/04/06 08:17:22;;;;;;;3.53;3.23;;;7.60;92.50;;;;;;4975442;28;20718;-73
2023/04/06 08:19:47;;;;;;;6.17;3.93;;;7.70;91.30;;;;;;4975633;28;20274;-73
2023/04/06 08:22:13;;;;;;;6.30;3.73;;;7.80;91.70;;;;;;4975483;28;20275;-73
2023/04/06 08:24:39;;;;;;;4.80;3.23;;;7.90;91.30;;;;;;4975359;28;20196;-73
2023/04/06 08:27:04;;;;;;;3.80;3.10;;;7.90;90.40;;;;;;4967376;28;20198;-64
2023/04/06 08:29:30;;;;;;;4.80;3.33;;;8.00;89.10;;;;;;4966989;28;20672;-64
2023/04/06 08:31:55;;;;;;;4.80;3.03;;;8.10;89.00;;;;;;4972960;28;20675;-64
2023/04/06 08:34:22;;;;;;;2.90;2.30;;;8.10;88.40;;;;;;4975359;28;20224;-64
2023/04/06 08:36:48;;;;;;;3.90;2.80;;;8.20;85.90;;;;;;4974862;28;20580;-64
2023/04/06 08:39:13;;;;;;;5.53;2.97;;;8.20;86.70;;;;;;4973501;28;20317;-64
2023/04/06 08:41:42;;;;;;;3.70;3.17;;;8.30;85.50;;;;;;4974760;28;20228;-64
2023/04/06 08:44:08;;;;;;;5.30;2.50;;;8.30;85.20;;;;;;4974975;28;20226;-63
2023/04/06 08:46:33;;;;;;;3.90;2.93;;;8.40;84.00;;;;;;4970634;28;21034;-84
2023/04/06 08:49:01;;;;;;;3.07;2.80;;;8.40;86.00;;;;;;4976132;28;20204;-65
2023/04/06 08:51:29;;;;;;;2.87;2.57;;;8.50;83.30;;;;;;4965826;28;20272;-64
2023/04/06 08:53:56;;;;;;;3.53;3.23;;;8.50;82.80;;;;;;4975265;28;20647;-65
2023/04/06 08:56:23;;;;;;;3.67;2.70;;;8.40;83.40;;;;;;4974953;28;20970;-65
2023/04/06 08:58:49;;;;;;;3.97;2.53;;;8.50;82.00;;;;;;4975377;28;20205;-64
2023/04/06 09:01:16;;;;;;;3.70;2.77;;;8.60;81.10;;;;;;4975211;28;20232;-64
2023/04/06 09:03:43;;;;;;;4.00;3.60;;;8.70;80.50;;;;;;4978742;28;20267;-64
2023/04/06 09:06:09;;;;;;;4.03;3.07;;;8.80;80.20;;;;;;4978592;28;20213;-64
2023/04/06 09:08:35;;;;;;;3.20;2.43;;;8.90;79.90;;;;;;4979456;28;20207;-69
2023/04/06 09:11:02;;;;;;;4.17;2.17;;;9.10;79.10;;;;;;4977929;28;20520;-67
2023/04/06 09:13:28;;;;;;;3.43;2.60;;;9.00;76.90;;;;;;4977959;28;20205;-64
2023/04/06 09:16:02;;;;;;;3.47;2.23;;;9.20;76.80;;;;;;4974369;28;20206;-82
2023/04/06 09:18:29;;;;;;;4.50;2.20;;;9.30;75.00;;;;;;4977962;28;20672;-66
2023/04/06 09:21:01;;;;;;;2.37;2.07;;;9.40;72.40;;;;;;4976534;28;20203;-64
2023/04/06 09:23:27;;;;;;;3.30;2.27;;;9.40;74.00;;;;;;4972189;28;20206;-64
2023/04/06 09:26:02;;;;;;;2.73;2.53;;;9.40;75.50;;;;;;4966945;28;20456;-64
2023/04/06 09:28:28;;;;;;;2.43;2.23;;;9.40;73.10;;;;;;4965387;28;20688;-62
2023/04/06 09:30:53;;;;;;;2.87;2.50;;;9.40;73.70;;;;;;4971151;28;20198;-66
2023/04/06 09:33:23;;;;;;;2.03;1.87;;;9.50;71.60;;;;;;4968268;28;20272;-66
2023/04/06 09:35:52;;;;;;;4.83;2.30;;;9.70;72.10;;;;;;4966797;28;20206;-64
2023/04/06 09:38:17;;;;;;;2.87;2.57;;;9.90;70.00;;;;;;4967347;28;20190;-64
2023/04/06 09:40:52;;;;;;;4.40;2.77;;;9.90;68.70;;;;;;4965487;28;20217;-65
2023/04/06 09:43:26;;;;;;;3.00;2.23;;;9.90;67.90;;;;;;4972645;28;20280;-63
2023/04/06 09:45:52;;;;;;;2.77;2.27;;;9.70;68.20;;;;;;4968409;28;20300;-64
2023/04/06 09:48:20;;;;;;;4.23;2.50;;;9.80;69.30;;;;;;4969786;28;20239;-63
2023/04/06 09:50:46;;;;;;;3.63;2.30;;;9.90;68.90;;;;;;4969969;28;20204;-64
2023/04/06 09:53:12;;;;;;;4.30;2.37;;;10.00;68.00;;;;;;4971076;28;20577;-64
2023/04/06 09:55:42;;;;;;;2.30;2.10;;;10.20;68.90;;;;;;4967263;28;20269;-64
2023/04/06 09:58:15;;;;;;;3.13;2.07;;;10.30;67.00;;;;;;4966140;28;20212;-63
2023/04/06 10:00:48;;;;;;;5.07;2.40;;;10.40;65.60;;;;;;4967662;28;20225;-63
2023/04/06 10:03:45;;;;;;;3.23;2.47;;;10.50;66.50;;;;;;4966633;28;20222;-64
2023/04/06 10:06:13;;;;;;;9.47;2.70;;;10.50;64.90;;;;;;4972176;28;20199;-63
2023/04/06 10:08:41;;;;;;;3.10;1.83;;;10.60;65.10;;;;;;4977123;28;20256;-63
2023/04/06 10:11:07;;;;;;;2.43;2.10;;;10.50;62.50;;;;;;4977570;28;20595;-64
2023/04/06 10:13:33;;;;;;;2.60;2.30;;;10.50;62.10;;;;;;4961109;28;20199;-64
2023/04/06 10:16:01;;;;;;;1.97;1.80;;;10.50;61.30;;;;;;4976225;28;20209;-64
2023/04/06 10:18:27;;;;;;;3.10;2.80;;;10.80;63.20;;;;;;4975687;28;20623;-64
2023/04/06 10:21:01;;;;;;;5.03;2.97;;;10.70;61.50;;;;;;4970481;28;20208;-64
2023/04/06 10:23:47;;;;;;;2.87;2.00;;;10.60;60.00;;;;;;4965939;28;20211;-64
2023/04/06 10:26:16;;;;;;;3.87;2.10;;;10.60;60.90;;;;;;4964569;28;20212;-63
2023/04/06 10:28:43;;;;;;;4.17;2.40;;;10.80;58.20;;;;;;4967555;28;20547;-64
2023/04/06 10:31:08;;;;;;;2.90;2.20;;;11.10;57.30;;;;;;4965029;28;20211;-66
2023/04/06 10:33:34;;;;;;;2.10;1.87;;;11.30;56.40;;;;;;4966788;28;20543;-64
2023/04/06 10:36:14;;;;;;;3.43;2.40;;;11.40;55.70;;;;;;4971904;28;20289;-64
2023/04/06 10:38:41;;;;;;;3.30;1.93;;;11.50;55.10;;;;;;4963488;28;20208;-65
2023/04/06 10:41:08;;;;;;;3.20;1.73;;;11.10;54.90;;;;;;4966041;28;20202;-64
2023/04/06 10:43:36;;;;;;;2.20;2.00;;;11.00;56.00;;;;;;4967209;28;20647;-64
2023/04/06 10:46:02;;;;;;;3.67;2.47;;;11.10;55.90;;;;;;4965425;28;20207;-63
2023/04/06 10:48:42;;;;;;;4.33;2.40;;;11.40;55.70;;;;;;4965527;28;20203;-64
2023/04/06 10:51:10;;;;;;;2.67;2.03;;;11.90;56.20;;;;;;4947923;28;20262;-63
2023/04/06 10:53:36;;;;;;;3.20;1.97;;;12.40;56.10;;;;;;4965478;28;20206;-63
2023/04/06 10:56:03;;;;;;;3.17;2.60;;;12.50;52.20;;;;;;4966809;28;20211;-63
2023/04/06 10:58:30;;;;;;;5.13;2.37;;;12.60;52.80;;;;;;4969265;28;20205;-63
2023/04/06 11:00:56;;;;;;;6.03;2.90;;;12.80;52.80;;;;;;4968412;28;20247;-63
2023/04/06 11:03:22;;;;;;;2.97;2.00;;;12.40;50.70;;;;;;4971598;28;20651;-64
2023/04/06 11:05:48;;;;;;;5.07;3.33;;;11.80;50.30;;;;;;4966989;28;20967;-64
2023/04/06 11:08:27;;;;;;;4.63;3.13;;;11.50;50.40;;;;;;4966059;28;20251;-63
2023/04/06 11:11:08;;;;;;;3.40;2.73;;;11.30;49.30;;;;;;4967222;28;20423;-66
2023/04/06 11:13:49;;;;;;;7.17;2.37;;;11.30;49.80;;;;;;4963086;28;20251;-64
2023/04/06 11:16:41;;;;;;;4.00;2.53;;;12.10;51.80;;;;;;4964806;28;20236;-63
2023/04/06 11:19:07;;;;;;;7.23;3.40;;;12.30;48.00;;;;;;4963404;28;20621;-63
2023/04/06 11:21:47;;;;;;;2.50;2.13;;;12.70;50.80;;;;;;4964570;28;20228;-63
2023/04/06 11:24:19;;;;;;;4.13;2.73;;;13.20;49.30;;;;;;4967619;28;20209;-63
2023/04/06 11:26:56;;;;;;;2.40;2.20;;;13.70;48.40;;;;;;4965399;28;20227;-63
2023/04/06 11:29:30;;;;;;;4.13;2.37;;;13.90;47.90;;;;;;4965070;28;20209;-63
2023/04/06 11:32:05;;;;;;;2.90;2.70;;;13.80;47.70;;;;;;4963156;28;20209;-63
2023/04/06 11:34:41;;;;;;;4.30;2.60;;;13.60;47.30;;;;;;4963304;28;20296;-63
2023/04/06 11:37:09;;;;;;;2.60;2.40;;;13.70;46.10;;;;;;4972061;28;20528;-63
2023/04/06 11:39:40;;;;;;;5.60;3.00;;;13.50;45.60;;;;;;4976028;28;20746;-63
2023/04/06 11:42:06;;;;;;;2.63;2.40;;;13.60;46.60;;;;;;4974143;28;20221;-62
2023/04/06 11:44:36;;;;;;;3.20;2.90;;;13.60;45.20;;;;;;4975859;28;20573;-63
2023/04/06 11:47:04;;;;;;;2.90;2.47;;;14.30;46.30;;;;;;4973264;28;20204;-63
2023/04/06 11:49:30;;;;;;;2.07;1.97;;;14.30;44.50;;;;;;4975710;28;20205;-63
2023/04/06 11:51:57;;;;;;;2.33;2.13;;;14.00;44.70;;;;;;4976356;28;20689;-63
2023/04/06 11:54:37;;;;;;;2.23;1.83;;;14.00;45.20;;;;;;4972530;28;20291;-63
2023/04/06 11:57:05;;;;;;;4.33;2.43;;;13.60;43.90;;;;;;4974011;28;20232;-63
2023/04/06 11:59:32;;;;;;;3.33;2.47;;;13.10;43.90;;;;;;4967042;28;20691;-63
2023/04/06 12:01:57;;;;;;;2.50;2.40;;;13.00;45.10;;;;;;4974648;28;20212;-63
2023/04/06 12:04:23;;;;;;;4.53;2.97;;;13.30;44.90;;;;;;4976435;28;20251;-83
2023/04/06 12:06:49;;;;;;;3.87;2.73;;;13.60;45.90;;;;;;4975045;28;20205;-62
2023/04/06 12:09:17;;;;;;;4.07;2.63;;;13.90;45.00;;;;;;4973475;28;20211;-63
2023/04/06 12:11:43;;;;;;;2.43;2.27;;;14.00;45.40;;;;;;4975164;28;20725;-63
2023/04/06 12:14:08;;;;;;;3.40;3.03;;;13.70;44.80;;;;;;4975660;28;20287;-63
2023/04/06 12:16:34;;;;;;;2.83;2.63;;;14.30;45.50;;;;;;4973783;28;20205;-66
2023/04/06 12:19:01;;;;;;;3.70;2.60;;;15.10;41.60;;;;;;4959987;28;20261;-63
2023/04/06 12:21:31;;;;;;;2.40;2.20;;;15.20;41.80;;;;;;4967094;28;20696;-64
2023/04/06 12:23:58;;;;;;;2.60;2.40;;;15.20;41.20;;;;;;4975325;28;20292;-63
2023/04/06 12:26:24;;;;;;;3.40;3.10;;;15.50;39.50;;;;;;4975406;28;20209;-62
2023/04/06 12:28:50;;;;;;;2.93;2.50;;;16.00;39.60;;;;;;4967221;28;20709;-63
2023/04/06 12:31:21;;;;;;;3.93;2.87;;;16.50;39.20;;;;;;4965380;28;20278;-63
2023/04/06 12:33:47;;;;;;;3.60;3.30;;;16.80;39.10;;;;;;4965658;28;20236;-63
2023/04/06 12:36:15;;;;;;;4.67;2.80;;;17.00;37.60;;;;;;4966385;28;20217;-63
2023/04/06 12:38:41;;;;;;;3.10;2.40;;;16.30;37.20;;;;;;4967477;28;20712;-64
2023/04/06 12:41:07;;;;;;;3.40;2.87;;;16.20;37.20;;;;;;4973193;28;20211;-63
2023/04/06 12:43:33;;;;;;;2.23;2.03;;;16.40;38.50;;;;;;4968246;28;20218;-63
2023/04/06 12:45:59;;;;;;;2.47;2.27;;;16.50;37.30;;;;;;4968301;28;20207;-63
2023/04/06 12:48:25;;;;;;;2.60;2.40;;;15.70;37.80;;;;;;4950712;28;20695;-63
2023/04/06 12:51:01;;;;;;;2.60;2.40;;;15.00;39.00;;;;;;4966340;28;20206;-62
2023/04/06 12:53:27;;;;;;;3.20;3.00;;;15.20;39.80;;;;;;4968907;28;20863;-64
2023/04/06 12:55:54;;;;;;;3.00;2.40;;;15.10;37.30;;;;;;4967952;28;20308;-62
2023/04/06 12:58:21;;;;;;;3.20;2.97;;;15.70;38.50;;;;;;4965025;28;20216;-63